createdAt,value
2023-05-14T00:01:51.890Z,12.80
2023-05-14T00:04:22.165Z,12.70
2023-05-14T00:06:49.580Z,12.60
2023-05-14T00:09:17.050Z,12.60
2023-05-14T00:11:44.451Z,12.50
2023-05-14T00:14:12.230Z,12.50
2023-05-14T00:16:39.637Z,12.50
2023-05-14T00:19:07.025Z,12.40
2023-05-14T00:21:34.404Z,12.40
2023-05-14T00:24:02.022Z,12.30
2023-05-14T00:26:29.518Z,12.30
2023-05-14T00:28:56.810Z,12.20
2023-05-14T00:31:24.230Z,12.20
2023-05-14T00:33:51.861Z,12.20
2023-05-14T00:36:19.246Z,12.10
2023-05-14T00:38:46.833Z,12.10
2023-05-14T00:41:14.389Z,12.00
2023-05-14T00:43:41.814Z,12.00
2023-05-14T00:46:09.430Z,11.90
2023-05-14T00:48:36.859Z,11.90
2023-05-14T00:51:05.314Z,11.80
2023-05-14T00:53:33.397Z,11.80
2023-05-14T00:56:01.217Z,11.80
2023-05-14T00:58:29.263Z,11.80
2023-05-14T01:00:56.944Z,11.70
2023-05-14T01:03:24.365Z,11.70
2023-05-14T01:05:51.790Z,11.60
2023-05-14T01:08:28.262Z,11.50
2023-05-14T01:11:04.865Z,11.50
2023-05-14T01:13:54.620Z,11.50
2023-05-14T01:16:24.062Z,11.40
2023-05-14T01:18:52.777Z,11.40
2023-05-14T01:21:40.931Z,11.40
2023-05-14T01:24:09.295Z,11.30
2023-05-14T01:26:37.341Z,11.30
2023-05-14T01:29:26.787Z,11.30
2023-05-14T01:31:57.377Z,11.20
2023-05-14T01:34:28.300Z,11.20
2023-05-14T01:36:57.950Z,11.20
2023-05-14T01:39:26.618Z,11.10
2023-05-14T01:41:55.347Z,11.10
2023-05-14T01:44:23.507Z,11.10
2023-05-14T01:46:51.084Z,11.10
2023-05-14T01:49:19.557Z,11.10
2023-05-14T01:51:46.902Z,11.10
2023-05-14T01:54:14.234Z,11.10
2023-05-14T01:56:41.730Z,11.00
2023-05-14T01:59:09.011Z,11.00
2023-05-14T02:01:37.186Z,11.00
2023-05-14T02:04:04.976Z,10.90
2023-05-14T02:06:32.762Z,10.90
2023-05-14T02:09:00.185Z,10.90
2023-05-14T02:11:27.754Z,10.80
2023-05-14T02:13:54.948Z,10.80
2023-05-14T02:16:22.425Z,10.80
2023-05-14T02:18:52.023Z,10.80
2023-05-14T02:21:19.387Z,10.70
2023-05-14T02:23:48.440Z,10.70
2023-05-14T02:26:15.686Z,10.70
2023-05-14T02:28:43.003Z,10.60
2023-05-14T02:31:10.353Z,10.60
2023-05-14T02:33:37.737Z,10.60
2023-05-14T02:36:05.153Z,10.60
2023-05-14T02:38:32.852Z,10.60
2023-05-14T02:41:00.199Z,10.50
2023-05-14T02:43:27.505Z,10.50
2023-05-14T02:45:54.953Z,10.50
2023-05-14T02:48:22.894Z,10.40
2023-05-14T02:50:52.008Z,10.40
2023-05-14T02:53:19.549Z,10.40
2023-05-14T02:55:47.004Z,10.30
2023-05-14T02:58:14.989Z,10.30
2023-05-14T03:00:42.283Z,10.30
2023-05-14T03:03:09.793Z,10.20
2023-05-14T03:05:37.655Z,10.20
2023-05-14T03:08:05.017Z,10.20
2023-05-14T03:10:32.920Z,10.20
2023-05-14T03:13:00.299Z,10.10
2023-05-14T03:15:27.686Z,10.10
2023-05-14T03:17:55.009Z,10.10
2023-05-14T03:20:24.666Z,10.10
2023-05-14T03:22:54.252Z,10.10
2023-05-14T03:25:21.842Z,10.00
2023-05-14T03:27:49.070Z,10.00
2023-05-14T03:30:16.379Z,10.00
2023-05-14T03:32:44.067Z,10.00
2023-05-14T03:35:11.425Z,10.00
2023-05-14T03:37:38.632Z,9.90
2023-05-14T03:40:06.707Z,9.90
2023-05-14T03:42:34.985Z,9.90
2023-05-14T03:45:03.499Z,9.90
2023-05-14T03:47:30.717Z,9.90
2023-05-14T03:49:58.287Z,9.90
2023-05-14T03:52:25.568Z,9.90
2023-05-14T03:54:52.852Z,9.90
2023-05-14T03:57:20.971Z,9.90
2023-05-14T03:59:48.218Z,9.90
2023-05-14T04:02:15.548Z,9.90
2023-05-14T04:04:42.881Z,9.90
2023-05-14T04:07:10.234Z,9.90
2023-05-14T04:09:37.567Z,9.90
2023-05-14T04:12:05.246Z,9.90
2023-05-14T04:14:34.314Z,9.90
2023-05-14T04:17:01.679Z,10.00
2023-05-14T04:19:28.981Z,10.00
2023-05-14T04:21:56.289Z,10.10
2023-05-14T04:24:23.716Z,10.20
2023-05-14T04:26:50.933Z,10.20
2023-05-14T04:29:18.496Z,10.30
2023-05-14T04:31:46.321Z,10.30
2023-05-14T04:34:13.780Z,10.40
2023-05-14T04:36:41.284Z,10.50
2023-05-14T04:39:12.424Z,10.60
2023-05-14T04:41:39.867Z,10.70
2023-05-14T04:44:07.568Z,10.70
2023-05-14T04:46:35.033Z,10.90
2023-05-14T04:49:52.907Z,10.90
2023-05-14T04:52:20.298Z,11.10
2023-05-14T04:54:47.789Z,11.10
2023-05-14T04:57:15.170Z,11.20
2023-05-14T04:59:42.581Z,11.30
2023-05-14T05:02:09.933Z,11.30
2023-05-14T05:04:37.262Z,11.40
2023-05-14T05:07:05.670Z,11.50
2023-05-14T05:09:33.068Z,11.50
2023-05-14T05:12:01.515Z,11.60
2023-05-14T05:14:28.743Z,11.70
2023-05-14T05:16:56.137Z,11.80
2023-05-14T05:19:35.690Z,11.80
2023-05-14T05:22:07.577Z,11.90
2023-05-14T05:24:34.911Z,12.00
2023-05-14T05:27:02.178Z,12.00
2023-05-14T05:29:29.545Z,12.10
2023-05-14T05:31:56.878Z,12.20
2023-05-14T05:34:24.205Z,12.20
2023-05-14T05:36:51.596Z,12.30
2023-05-14T05:39:18.916Z,12.30
2023-05-14T05:41:46.169Z,12.40
2023-05-14T05:44:13.433Z,12.40
2023-05-14T05:46:40.930Z,12.50
2023-05-14T05:49:08.227Z,12.50
2023-05-14T05:51:35.480Z,12.60
2023-05-14T05:54:02.760Z,12.60
2023-05-14T05:56:29.958Z,12.70
2023-05-14T05:58:57.483Z,12.70
2023-05-14T06:01:24.802Z,12.80
2023-05-14T06:03:53.001Z,12.90
2023-05-14T06:06:20.358Z,13.00
2023-05-14T06:08:47.573Z,13.00
2023-05-14T06:11:15.331Z,13.10
2023-05-14T06:13:42.750Z,13.20
2023-05-14T06:16:10.210Z,13.30
2023-05-14T06:18:37.502Z,13.30
2023-05-14T06:21:04.755Z,13.40
2023-05-14T06:23:32.437Z,13.40
2023-05-14T06:25:59.646Z,13.50
2023-05-14T06:28:27.024Z,13.50
2023-05-14T06:30:54.353Z,13.60
2023-05-14T06:33:29.517Z,13.60
2023-05-14T06:36:05.701Z,13.70
2023-05-14T06:38:33.056Z,13.80
2023-05-14T06:41:00.529Z,13.80
2023-05-14T06:43:28.457Z,13.90
2023-05-14T06:45:55.790Z,13.90
2023-05-14T06:48:23.122Z,14.00
2023-05-14T06:50:50.679Z,14.10
2023-05-14T06:53:18.150Z,14.20
2023-05-14T06:55:47.727Z,14.30
2023-05-14T06:58:15.163Z,14.30
2023-05-14T07:00:42.832Z,14.50
2023-05-14T07:03:10.324Z,14.50
2023-05-14T07:05:37.994Z,14.70
2023-05-14T07:08:05.575Z,14.70
2023-05-14T07:10:33.232Z,14.80
2023-05-14T07:13:00.586Z,14.90
2023-05-14T07:15:27.820Z,15.00
2023-05-14T07:17:55.195Z,15.10
2023-05-14T07:20:24.045Z,15.20
2023-05-14T07:22:52.872Z,15.20
2023-05-14T07:25:20.357Z,15.30
2023-05-14T07:27:47.629Z,15.40
2023-05-14T07:30:15.342Z,15.40
2023-05-14T07:32:43.053Z,15.50
2023-05-14T07:35:11.666Z,15.50
2023-05-14T07:37:39.261Z,15.60
2023-05-14T07:40:07.413Z,15.60
2023-05-14T07:42:37.091Z,15.70
2023-05-14T07:45:05.436Z,15.80
2023-05-14T07:47:33.810Z,15.90
2023-05-14T07:50:01.330Z,16.00
2023-05-14T07:52:28.848Z,16.00
2023-05-14T07:54:56.181Z,16.10
2023-05-14T07:57:23.658Z,16.20
2023-05-14T07:59:51.377Z,16.20
2023-05-14T08:02:18.749Z,16.30
2023-05-14T08:04:45.974Z,16.30
2023-05-14T08:07:13.552Z,16.30
2023-05-14T08:09:40.961Z,16.40
2023-05-14T08:12:08.662Z,16.40
2023-05-14T08:14:36.150Z,16.50
2023-05-14T08:17:03.918Z,16.60
2023-05-14T08:19:31.260Z,16.60
2023-05-14T08:21:58.589Z,16.70
2023-05-14T08:24:25.877Z,16.80
2023-05-14T08:26:53.204Z,16.80
2023-05-14T08:29:20.653Z,16.90
2023-05-14T08:31:51.484Z,17.00
2023-05-14T08:34:18.723Z,17.10
2023-05-14T08:36:46.403Z,17.10
2023-05-14T08:39:13.807Z,17.10
2023-05-14T08:41:41.359Z,17.20
2023-05-14T08:44:14.400Z,17.20
2023-05-14T08:46:41.766Z,17.30
2023-05-14T08:49:36.329Z,17.30
2023-05-14T08:52:04.413Z,17.30
2023-05-14T08:54:32.519Z,17.30
2023-05-14T08:57:00.146Z,17.40
2023-05-14T08:59:27.588Z,17.40
2023-05-14T09:01:58.631Z,17.50
2023-05-14T09:04:27.752Z,17.60
2023-05-14T09:06:56.056Z,17.80
2023-05-14T09:09:23.707Z,18.00
2023-05-14T09:11:52.471Z,18.10
2023-05-14T09:14:20.372Z,18.20
2023-05-14T09:16:51.066Z,18.30
2023-05-14T09:19:19.506Z,18.40
2023-05-14T09:21:48.628Z,18.50
2023-05-14T09:24:21.359Z,18.50
2023-05-14T09:26:57.154Z,18.50
2023-05-14T09:29:26.225Z,18.50
2023-05-14T09:31:55.284Z,18.40
2023-05-14T09:34:30.640Z,18.40
2023-05-14T09:37:06.350Z,18.40
2023-05-14T09:39:36.247Z,18.30
2023-05-14T09:42:03.940Z,18.30
2023-05-14T09:44:31.972Z,18.30
2023-05-14T09:46:59.651Z,18.30
2023-05-14T09:49:27.013Z,18.30
2023-05-14T09:51:54.241Z,18.30
2023-05-14T09:54:21.605Z,18.40
2023-05-14T09:56:49.096Z,18.40
2023-05-14T09:59:16.573Z,18.40
2023-05-14T10:01:44.546Z,18.50
2023-05-14T10:04:13.622Z,18.50
2023-05-14T10:06:43.734Z,18.60
2023-05-14T10:09:13.643Z,18.60
2023-05-14T10:11:44.947Z,18.60
2023-05-14T10:14:24.397Z,18.60
2023-05-14T10:16:53.498Z,18.60
2023-05-14T10:19:24.647Z,18.70
2023-05-14T10:21:57.367Z,18.70
2023-05-14T10:24:25.550Z,18.80
2023-05-14T10:26:53.121Z,19.00
2023-05-14T10:29:20.663Z,19.10
2023-05-14T10:31:55.358Z,19.10
2023-05-14T10:34:33.416Z,19.20
2023-05-14T10:37:10.981Z,19.30
2023-05-14T10:39:56.949Z,19.40
2023-05-14T10:42:27.346Z,19.50
2023-05-14T10:44:58.345Z,19.50
2023-05-14T10:47:26.896Z,19.60
2023-05-14T10:49:58.612Z,19.60
2023-05-14T10:52:26.859Z,19.60
2023-05-14T10:54:57.247Z,19.60
2023-05-14T10:57:27.161Z,19.60
2023-05-14T11:00:00.468Z,19.70
2023-05-14T11:02:27.931Z,19.80
2023-05-14T11:05:00.580Z,19.90
2023-05-14T11:07:36.889Z,20.00
2023-05-14T11:10:09.799Z,20.10
2023-05-14T11:12:39.231Z,20.30
2023-05-14T11:15:09.419Z,20.50
2023-05-14T11:17:38.485Z,20.60
2023-05-14T11:20:07.132Z,20.70
2023-05-14T11:22:35.321Z,20.70
2023-05-14T11:25:03.092Z,20.70
2023-05-14T11:27:32.058Z,20.60
2023-05-14T11:30:01.064Z,20.60
2023-05-14T11:32:28.476Z,20.60
2023-05-14T11:34:56.026Z,20.50
2023-05-14T11:37:23.609Z,20.50
2023-05-14T11:39:53.953Z,20.50
2023-05-14T11:42:22.362Z,20.40
2023-05-14T11:44:51.845Z,20.50
2023-05-14T11:47:21.232Z,20.50
2023-05-14T11:49:49.487Z,20.60
2023-05-14T11:52:19.423Z,20.60
2023-05-14T11:54:47.346Z,20.70
2023-05-14T11:57:18.165Z,20.70
2023-05-14T11:59:46.034Z,20.80
2023-05-14T12:02:15.311Z,20.90
2023-05-14T12:04:43.437Z,21.00
2023-05-14T12:07:12.948Z,21.00
2023-05-14T12:09:45.025Z,21.10
2023-05-14T12:12:13.032Z,21.10
2023-05-14T12:14:42.780Z,21.20
2023-05-14T12:17:17.434Z,21.20
2023-05-14T12:19:47.622Z,21.20
2023-05-14T12:22:18.102Z,21.30
2023-05-14T12:24:55.868Z,21.30
2023-05-14T12:27:27.343Z,21.20
2023-05-14T12:30:20.575Z,21.20
2023-05-14T12:32:52.482Z,21.20
2023-05-14T12:35:21.500Z,21.20
2023-05-14T12:37:49.063Z,21.10
2023-05-14T12:40:16.435Z,21.10
2023-05-14T12:42:43.724Z,21.10
2023-05-14T12:45:11.738Z,21.00
2023-05-14T12:47:39.223Z,20.90
2023-05-14T12:50:07.310Z,20.70
2023-05-14T12:52:39.155Z,20.60
2023-05-14T12:55:08.857Z,20.60
2023-05-14T12:57:37.199Z,20.50
2023-05-14T13:00:08.490Z,20.50
2023-05-14T13:02:42.162Z,20.50
2023-05-14T13:05:11.787Z,20.50
2023-05-14T13:07:39.524Z,20.50
2023-05-14T13:10:07.488Z,20.50
2023-05-14T13:12:34.778Z,20.60
2023-05-14T13:15:02.170Z,20.60
2023-05-14T13:17:29.518Z,20.70
2023-05-14T13:19:56.987Z,20.70
2023-05-14T13:22:24.361Z,20.70
2023-05-14T13:24:51.809Z,20.80
2023-05-14T13:27:19.271Z,20.80
2023-05-14T13:29:46.644Z,20.90
2023-05-14T13:32:14.120Z,20.90
2023-05-14T13:34:41.426Z,21.00
2023-05-14T13:37:08.703Z,21.10
2023-05-14T13:39:36.010Z,21.10
2023-05-14T13:42:03.635Z,21.20
2023-05-14T13:44:30.922Z,21.20
2023-05-14T13:46:58.184Z,21.30
2023-05-14T13:49:25.574Z,21.30
2023-05-14T13:51:52.816Z,21.40
2023-05-14T13:54:20.193Z,21.40
2023-05-14T13:56:47.478Z,21.40
2023-05-14T13:59:15.235Z,21.30
2023-05-14T14:01:43.260Z,21.30
2023-05-14T14:04:10.896Z,21.40
2023-05-14T14:06:38.174Z,21.40
2023-05-14T14:09:05.402Z,21.50
2023-05-14T14:11:32.836Z,21.50
2023-05-14T14:14:00.323Z,21.60
2023-05-14T14:16:27.892Z,21.60
2023-05-14T14:18:55.338Z,21.60
2023-05-14T14:21:23.068Z,21.60
2023-05-14T14:23:50.444Z,21.60
2023-05-14T14:26:17.762Z,21.60
2023-05-14T14:28:45.076Z,21.50
2023-05-14T14:31:13.235Z,21.40
2023-05-14T14:33:40.679Z,21.40
2023-05-14T14:36:08.381Z,21.40
2023-05-14T14:38:35.723Z,21.30
2023-05-14T14:41:03.169Z,21.20
2023-05-14T14:43:30.868Z,21.20
2023-05-14T14:45:58.167Z,21.20
2023-05-14T14:48:31.761Z,21.20
2023-05-14T14:50:59.630Z,21.30
2023-05-14T14:53:27.393Z,21.20
2023-05-14T14:55:55.162Z,21.20
2023-05-14T14:58:23.416Z,21.10
2023-05-14T15:00:54.659Z,21.10
2023-05-14T15:03:23.327Z,21.10
2023-05-14T15:05:52.184Z,21.00
2023-05-14T15:08:20.683Z,21.00
2023-05-14T15:10:48.124Z,21.00
2023-05-14T15:13:15.657Z,21.00
2023-05-14T15:15:43.160Z,21.00
2023-05-14T15:18:10.747Z,21.00
2023-05-14T15:20:38.258Z,20.90
2023-05-14T15:23:06.223Z,20.80
2023-05-14T15:25:33.547Z,20.80
2023-05-14T15:28:00.875Z,20.80
2023-05-14T15:30:28.543Z,20.70
2023-05-14T15:32:56.194Z,20.60
2023-05-14T15:35:23.985Z,20.60
2023-05-14T15:37:51.719Z,20.50
2023-05-14T15:40:19.326Z,20.50
2023-05-14T15:42:46.967Z,20.60
2023-05-14T15:45:14.668Z,20.60
2023-05-14T15:47:42.372Z,20.60
2023-05-14T15:50:09.815Z,20.60
2023-05-14T15:52:37.348Z,20.70
2023-05-14T15:55:06.508Z,20.60
2023-05-14T15:57:34.246Z,20.60
2023-05-14T16:00:01.786Z,20.70
2023-05-14T16:02:33.168Z,20.70
2023-05-14T16:05:00.661Z,20.80
2023-05-14T16:07:27.936Z,20.90
2023-05-14T16:09:55.141Z,21.00
2023-05-14T16:12:22.322Z,21.10
2023-05-14T16:14:50.136Z,21.20
2023-05-14T16:17:17.346Z,21.20
2023-05-14T16:19:44.649Z,21.30
2023-05-14T16:22:11.845Z,21.20
2023-05-14T16:24:39.209Z,21.20
2023-05-14T16:27:06.493Z,21.10
2023-05-14T16:29:34.037Z,21.10
2023-05-14T16:32:01.876Z,21.00
2023-05-14T16:34:29.447Z,20.90
2023-05-14T16:36:56.713Z,20.80
2023-05-14T16:39:24.038Z,20.70
2023-05-14T16:41:51.473Z,20.60
2023-05-14T16:44:18.832Z,20.40
2023-05-14T16:46:46.246Z,20.20
2023-05-14T16:49:14.035Z,19.90
2023-05-14T16:51:43.208Z,19.70
2023-05-14T16:54:10.733Z,19.30
2023-05-14T16:56:38.468Z,19.10
2023-05-14T16:59:07.467Z,18.90
2023-05-14T17:01:35.532Z,18.80
2023-05-14T17:04:03.024Z,18.60
2023-05-14T17:06:30.966Z,18.50
2023-05-14T17:08:58.498Z,18.50
2023-05-14T17:11:25.920Z,18.40
2023-05-14T17:13:53.320Z,18.40
2023-05-14T17:16:22.020Z,18.30
2023-05-14T17:18:49.558Z,18.30
2023-05-14T17:21:16.950Z,18.30
2023-05-14T17:23:44.333Z,18.20
2023-05-14T17:26:12.078Z,18.20
2023-05-14T17:28:39.401Z,18.20
2023-05-14T17:31:06.795Z,18.20
2023-05-14T17:33:34.252Z,18.10
2023-05-14T17:36:01.738Z,18.10
2023-05-14T17:38:29.199Z,18.10
2023-05-14T17:40:56.497Z,18.10
2023-05-14T17:43:23.853Z,18.00
2023-05-14T17:45:54.341Z,18.00
2023-05-14T17:48:23.793Z,18.00
2023-05-14T17:50:51.918Z,18.00
2023-05-14T17:53:19.417Z,17.90
2023-05-14T17:55:46.856Z,17.90
2023-05-14T17:58:15.424Z,17.90
2023-05-14T18:00:43.804Z,17.90
2023-05-14T18:03:11.477Z,17.90
2023-05-14T18:05:39.194Z,17.90
2023-05-14T18:08:09.409Z,17.90
2023-05-14T18:10:36.797Z,17.90
2023-05-14T18:13:04.033Z,17.90
2023-05-14T18:15:31.495Z,17.90
2023-05-14T18:17:59.623Z,17.80
2023-05-14T18:20:26.865Z,17.80
2023-05-14T18:22:54.460Z,17.80
2023-05-14T18:25:22.330Z,17.70
2023-05-14T18:27:49.734Z,17.70
2023-05-14T18:30:17.009Z,17.60
2023-05-14T18:32:44.993Z,17.60
2023-05-14T18:35:13.683Z,17.50
2023-05-14T18:37:41.248Z,17.50
2023-05-14T18:40:09.546Z,17.40
2023-05-14T18:42:36.961Z,17.40
2023-05-14T18:45:04.700Z,17.30
2023-05-14T18:47:33.032Z,17.20
2023-05-14T18:50:02.028Z,17.20
2023-05-14T18:52:29.813Z,17.10
2023-05-14T18:54:57.224Z,17.00
2023-05-14T18:57:27.223Z,16.90
2023-05-14T18:59:55.003Z,16.90
2023-05-14T19:02:22.462Z,16.80
2023-05-14T19:04:52.860Z,16.70
2023-05-14T19:07:21.344Z,16.60
2023-05-14T19:09:48.896Z,16.50
2023-05-14T19:12:16.775Z,16.50
2023-05-14T19:14:44.160Z,16.40
2023-05-14T19:17:11.691Z,16.40
2023-05-14T19:19:39.408Z,16.30
2023-05-14T19:22:06.967Z,16.20
2023-05-14T19:24:34.428Z,16.10
2023-05-14T19:27:01.711Z,16.10
2023-05-14T19:29:29.059Z,16.00
2023-05-14T19:31:56.581Z,15.90
2023-05-14T19:34:24.208Z,15.90
2023-05-14T19:36:51.466Z,15.80
2023-05-14T19:39:18.878Z,15.80
2023-05-14T19:41:46.138Z,15.70
2023-05-14T19:44:13.466Z,15.70
2023-05-14T19:46:41.121Z,15.70
2023-05-14T19:49:08.582Z,15.60
2023-05-14T19:51:36.126Z,15.60
2023-05-14T19:54:03.906Z,15.60
2023-05-14T19:56:31.234Z,15.50
2023-05-14T19:58:58.635Z,15.50
2023-05-14T20:01:26.693Z,15.50
2023-05-14T20:03:55.157Z,15.50
2023-05-14T20:06:22.365Z,15.50
2023-05-14T20:08:51.260Z,15.50
2023-05-14T20:11:19.446Z,15.40
2023-05-14T20:13:46.942Z,15.40
2023-05-14T20:16:16.720Z,15.50
2023-05-14T20:18:44.674Z,15.50
2023-05-14T20:21:12.154Z,15.50
2023-05-14T20:23:39.587Z,15.50
2023-05-14T20:26:06.922Z,15.50
2023-05-14T20:28:34.350Z,15.50
2023-05-14T20:31:03.952Z,15.60
2023-05-14T20:33:31.638Z,15.60
2023-05-14T20:35:59.194Z,15.60
2023-05-14T20:38:29.135Z,15.50
2023-05-14T20:40:56.460Z,15.50
2023-05-14T20:43:23.809Z,15.50
2023-05-14T20:45:51.074Z,15.40
2023-05-14T20:48:19.996Z,15.40
2023-05-14T20:50:47.233Z,15.40
2023-05-14T20:53:14.672Z,15.30
2023-05-14T20:55:42.264Z,15.20
2023-05-14T20:58:09.579Z,15.20
2023-05-14T21:00:36.805Z,15.10
2023-05-14T21:03:04.686Z,15.10
2023-05-14T21:05:32.532Z,15.00
2023-05-14T21:07:59.742Z,15.00
2023-05-14T21:10:27.113Z,14.90
2023-05-14T21:12:54.887Z,14.80
2023-05-14T21:15:22.592Z,14.80
2023-05-14T21:17:50.424Z,14.70
2023-05-14T21:20:17.739Z,14.70
2023-05-14T21:22:45.160Z,14.70
2023-05-14T21:25:12.574Z,14.60
2023-05-14T21:27:39.968Z,14.60
2023-05-14T21:30:07.977Z,14.60
2023-05-14T21:32:35.283Z,14.50
2023-05-14T21:35:03.034Z,14.50
2023-05-14T21:37:30.745Z,14.50
2023-05-14T21:39:57.958Z,14.50
2023-05-14T21:42:25.410Z,14.40
2023-05-14T21:44:52.757Z,14.40
2023-05-14T21:47:21.019Z,14.40
2023-05-14T21:49:48.440Z,14.30
2023-05-14T21:52:16.243Z,14.30
2023-05-14T21:54:43.603Z,14.20
2023-05-14T21:57:11.436Z,14.20
2023-05-14T21:59:39.182Z,14.10
2023-05-14T22:02:08.021Z,14.00
2023-05-14T22:04:35.742Z,14.00
2023-05-14T22:07:03.512Z,13.90
2023-05-14T22:09:30.829Z,13.90
2023-05-14T22:11:58.587Z,13.80
2023-05-14T22:14:27.238Z,13.80
2023-05-14T22:16:55.085Z,13.80
2023-05-14T22:19:22.492Z,13.70
2023-05-14T22:21:49.708Z,13.70
2023-05-14T22:24:17.056Z,13.60
2023-05-14T22:26:44.351Z,13.60
2023-05-14T22:29:11.991Z,13.60
2023-05-14T22:31:39.602Z,13.50
2023-05-14T22:34:07.077Z,13.50
2023-05-14T22:36:34.486Z,13.50
2023-05-14T22:39:01.694Z,13.40
2023-05-14T22:41:29.143Z,13.40
2023-05-14T22:43:56.324Z,13.40
2023-05-14T22:46:23.797Z,13.40
2023-05-14T22:48:51.083Z,13.30
2023-05-14T22:51:18.342Z,13.30
2023-05-14T22:53:47.010Z,13.30
2023-05-14T22:56:14.825Z,13.30
2023-05-14T22:58:42.249Z,13.30
2023-05-14T23:01:09.533Z,13.40
2023-05-14T23:03:36.846Z,13.40
2023-05-14T23:06:04.305Z,13.40
2023-05-14T23:08:31.522Z,13.40
2023-05-14T23:10:58.705Z,13.40
2023-05-14T23:13:25.897Z,13.40
2023-05-14T23:15:53.443Z,13.40
2023-05-14T23:18:20.906Z,13.50
2023-05-14T23:20:48.827Z,13.50
2023-05-14T23:23:16.074Z,13.50
2023-05-14T23:25:43.428Z,13.50
2023-05-14T23:28:10.835Z,13.50
2023-05-14T23:30:38.108Z,13.50
2023-05-14T23:33:05.487Z,13.50
2023-05-14T23:35:32.914Z,13.60
2023-05-14T23:38:00.227Z,13.60
2023-05-14T23:40:27.488Z,13.50
2023-05-14T23:42:54.930Z,13.50
2023-05-14T23:45:22.659Z,13.50
2023-05-14T23:47:50.788Z,13.50
2023-05-14T23:50:18.164Z,13.50
2023-05-14T23:52:45.805Z,13.50
2023-05-14T23:55:13.584Z,13.50
2023-05-14T23:57:41.064Z,13.50
